Terminal Aerodrome Forecast
Issued by NWS

Home | Current Version | Previous Version | Text Only | Print | Product List | Glossary On
Versions: 1 2 3 4 5 6 7 8 9 10 11 12 13 14 15 16 17 18 19 20 21 22 23 24 25 26 27 28 29 30 31 32
000
FTAK31 PANC 312330
TAFATK
TAF
PATK 312330Z 0100/0124 VRB04KT P6SM SCT100 SCT200
     FM010300 VRB05KT P6SM VCSH SCT050 BKN080
     FM010700 VRB03KT P6SM FEW100=

USA.gov is the U.S. government's official web portal to all federal, state and local government web resources and services.